sensor_id;sensor_type;location;lat;lon;timestamp;P1;durP1;ratioP1;P2;durP2;ratioP2
64669;SDS011;51080;51.690;5.174;2022-08-02T00:01:48;6.20;;;2.00;;
64669;SDS011;51080;51.690;5.174;2022-08-02T00:07:32;5.40;;;1.90;;
64669;SDS011;51080;51.690;5.174;2022-08-02T00:13:16;4.50;;;1.70;;
64669;SDS011;51080;51.690;5.174;2022-08-02T00:19:00;5.70;;;1.80;;
64669;SDS011;51080;51.690;5.174;2022-08-02T00:24:44;4.30;;;1.70;;
64669;SDS011;51080;51.690;5.174;2022-08-02T00:30:29;4.20;;;1.70;;
64669;SDS011;51080;51.690;5.174;2022-08-02T00:36:13;5.60;;;1.90;;
64669;SDS011;51080;51.690;5.174;2022-08-02T00:41:58;5.10;;;1.90;;
64669;SDS011;51080;51.690;5.174;2022-08-02T00:48:12;3.60;;;1.80;;
64669;SDS011;51080;51.690;5.174;2022-08-02T00:54:26;4.40;;;2.00;;
64669;SDS011;51080;51.690;5.174;2022-08-02T01:00:12;5.10;;;2.10;;
64669;SDS011;51080;51.690;5.174;2022-08-02T01:05:56;4.80;;;2.30;;
64669;SDS011;51080;51.690;5.174;2022-08-02T01:11:40;5.70;;;2.10;;
64669;SDS011;51080;51.690;5.174;2022-08-02T01:23:33;4.10;;;1.90;;
64669;SDS011;51080;51.690;5.174;2022-08-02T01:29:38;4.50;;;1.80;;
64669;SDS011;51080;51.690;5.174;2022-08-02T01:35:56;5.00;;;1.70;;
64669;SDS011;51080;51.690;5.174;2022-08-02T01:41:42;4.50;;;1.80;;
64669;SDS011;51080;51.690;5.174;2022-08-02T01:47:30;4.00;;;2.20;;
64669;SDS011;51080;51.690;5.174;2022-08-02T01:53:18;4.60;;;2.10;;
64669;SDS011;51080;51.690;5.174;2022-08-02T01:59:04;5.10;;;2.20;;
64669;SDS011;51080;51.690;5.174;2022-08-02T02:04:54;7.60;;;2.90;;
64669;SDS011;51080;51.690;5.174;2022-08-02T02:10:41;6.40;;;2.40;;
64669;SDS011;51080;51.690;5.174;2022-08-02T02:16:28;6.30;;;2.60;;
64669;SDS011;51080;51.690;5.174;2022-08-02T02:22:13;5.30;;;2.30;;
64669;SDS011;51080;51.690;5.174;2022-08-02T02:27:59;5.60;;;2.40;;
64669;SDS011;51080;51.690;5.174;2022-08-02T02:39:42;4.70;;;2.10;;
64669;SDS011;51080;51.690;5.174;2022-08-02T02:45:28;5.60;;;2.30;;
64669;SDS011;51080;51.690;5.174;2022-08-02T02:51:15;7.10;;;2.70;;
64669;SDS011;51080;51.690;5.174;2022-08-02T02:57:00;6.40;;;2.50;;
64669;SDS011;51080;51.690;5.174;2022-08-02T03:02:45;7.40;;;2.70;;
64669;SDS011;51080;51.690;5.174;2022-08-02T03:08:31;8.20;;;2.50;;
64669;SDS011;51080;51.690;5.174;2022-08-02T03:14:45;5.50;;;2.60;;
64669;SDS011;51080;51.690;5.174;2022-08-02T03:20:29;7.70;;;2.60;;
64669;SDS011;51080;51.690;5.174;2022-08-02T03:26:13;5.20;;;2.50;;
64669;SDS011;51080;51.690;5.174;2022-08-02T03:31:59;6.90;;;3.10;;
64669;SDS011;51080;51.690;5.174;2022-08-02T03:37:44;6.10;;;2.70;;
64669;SDS011;51080;51.690;5.174;2022-08-02T03:43:30;4.80;;;2.40;;
64669;SDS011;51080;51.690;5.174;2022-08-02T03:49:15;5.80;;;2.70;;
64669;SDS011;51080;51.690;5.174;2022-08-02T03:55:30;7.10;;;2.90;;
64669;SDS011;51080;51.690;5.174;2022-08-02T04:01:45;8.80;;;3.30;;
64669;SDS011;51080;51.690;5.174;2022-08-02T04:07:30;6.60;;;3.30;;
64669;SDS011;51080;51.690;5.174;2022-08-02T04:13:15;5.60;;;2.70;;
64669;SDS011;51080;51.690;5.174;2022-08-02T04:19:02;6.90;;;3.30;;
64669;SDS011;51080;51.690;5.174;2022-08-02T04:24:49;6.00;;;3.00;;
64669;SDS011;51080;51.690;5.174;2022-08-02T04:30:38;5.60;;;3.00;;
64669;SDS011;51080;51.690;5.174;2022-08-02T04:36:22;6.60;;;3.00;;
64669;SDS011;51080;51.690;5.174;2022-08-02T04:42:07;7.30;;;3.00;;
64669;SDS011;51080;51.690;5.174;2022-08-02T04:47:52;6.00;;;3.30;;
64669;SDS011;51080;51.690;5.174;2022-08-02T04:54:07;6.30;;;3.50;;
64669;SDS011;51080;51.690;5.174;2022-08-02T04:59:53;8.20;;;3.60;;
64669;SDS011;51080;51.690;5.174;2022-08-02T05:05:37;8.60;;;3.60;;
64669;SDS011;51080;51.690;5.174;2022-08-02T05:11:22;6.90;;;3.70;;
64669;SDS011;51080;51.690;5.174;2022-08-02T05:17:07;7.60;;;3.90;;
64669;SDS011;51080;51.690;5.174;2022-08-02T05:22:52;7.90;;;4.00;;
64669;SDS011;51080;51.690;5.174;2022-08-02T05:28:36;11.10;;;4.50;;
64669;SDS011;51080;51.690;5.174;2022-08-02T05:34:21;8.80;;;4.80;;
64669;SDS011;51080;51.690;5.174;2022-08-02T05:40:06;11.20;;;5.40;;
64669;SDS011;51080;51.690;5.174;2022-08-02T05:45:50;11.40;;;5.20;;
64669;SDS011;51080;51.690;5.174;2022-08-02T05:52:14;9.90;;;4.70;;
64669;SDS011;51080;51.690;5.174;2022-08-02T05:58:19;9.60;;;5.70;;
64669;SDS011;51080;51.690;5.174;2022-08-02T06:04:18;11.30;;;5.80;;
64669;SDS011;51080;51.690;5.174;2022-08-02T06:10:08;10.60;;;6.10;;
64669;SDS011;51080;51.690;5.174;2022-08-02T06:15:54;10.50;;;6.90;;
64669;SDS011;51080;51.690;5.174;2022-08-02T06:22:10;12.10;;;7.40;;
64669;SDS011;51080;51.690;5.174;2022-08-02T06:27:55;12.30;;;8.00;;
64669;SDS011;51080;51.690;5.174;2022-08-02T06:34:12;12.10;;;7.70;;
64669;SDS011;51080;51.690;5.174;2022-08-02T06:40:05;10.60;;;8.30;;
64669;SDS011;51080;51.690;5.174;2022-08-02T06:45:55;14.00;;;8.40;;
64669;SDS011;51080;51.690;5.174;2022-08-02T06:52:10;15.60;;;9.10;;
64669;SDS011;51080;51.690;5.174;2022-08-02T06:57:58;16.20;;;9.80;;
64669;SDS011;51080;51.690;5.174;2022-08-02T07:03:45;17.10;;;10.10;;
64669;SDS011;51080;51.690;5.174;2022-08-02T07:09:34;13.40;;;9.20;;
64669;SDS011;51080;51.690;5.174;2022-08-02T07:15:22;15.70;;;9.60;;
64669;SDS011;51080;51.690;5.174;2022-08-02T07:21:08;15.20;;;9.10;;
64669;SDS011;51080;51.690;5.174;2022-08-02T07:26:53;12.80;;;8.50;;
64669;SDS011;51080;51.690;5.174;2022-08-02T07:32:37;14.80;;;8.30;;
64669;SDS011;51080;51.690;5.174;2022-08-02T07:38:24;13.70;;;8.50;;
64669;SDS011;51080;51.690;5.174;2022-08-02T07:44:08;12.70;;;7.30;;
64669;SDS011;51080;51.690;5.174;2022-08-02T07:49:54;11.50;;;7.20;;
64669;SDS011;51080;51.690;5.174;2022-08-02T07:55:41;11.30;;;6.70;;
64669;SDS011;51080;51.690;5.174;2022-08-02T08:01:26;9.00;;;6.30;;
64669;SDS011;51080;51.690;5.174;2022-08-02T08:07:13;11.60;;;6.10;;
64669;SDS011;51080;51.690;5.174;2022-08-02T08:12:57;8.20;;;6.10;;
64669;SDS011;51080;51.690;5.174;2022-08-02T08:18:41;8.80;;;5.40;;
64669;SDS011;51080;51.690;5.174;2022-08-02T08:24:25;8.50;;;4.90;;
64669;SDS011;51080;51.690;5.174;2022-08-02T08:30:11;6.50;;;4.60;;
64669;SDS011;51080;51.690;5.174;2022-08-02T08:35:56;8.10;;;4.00;;
64669;SDS011;51080;51.690;5.174;2022-08-02T08:41:42;6.10;;;3.90;;
64669;SDS011;51080;51.690;5.174;2022-08-02T08:47:34;6.30;;;3.70;;
64669;SDS011;51080;51.690;5.174;2022-08-02T08:53:26;6.60;;;3.70;;
64669;SDS011;51080;51.690;5.174;2022-08-02T08:59:15;9.20;;;3.50;;
64669;SDS011;51080;51.690;5.174;2022-08-02T09:05:13;4.80;;;3.20;;
64669;SDS011;51080;51.690;5.174;2022-08-02T09:11:10;5.30;;;3.20;;
64669;SDS011;51080;51.690;5.174;2022-08-02T09:17:05;5.50;;;2.30;;
64669;SDS011;51080;51.690;5.174;2022-08-02T09:23:05;4.40;;;2.40;;
64669;SDS011;51080;51.690;5.174;2022-08-02T09:28:59;3.90;;;2.20;;
64669;SDS011;51080;51.690;5.174;2022-08-02T09:34:52;6.20;;;2.40;;
64669;SDS011;51080;51.690;5.174;2022-08-02T09:40:37;4.50;;;1.90;;
64669;SDS011;51080;51.690;5.174;2022-08-02T09:46:27;4.50;;;1.90;;
64669;SDS011;51080;51.690;5.174;2022-08-02T09:52:12;2.10;;;1.50;;
64669;SDS011;51080;51.690;5.174;2022-08-02T09:57:57;3.60;;;1.70;;
64669;SDS011;51080;51.690;5.174;2022-08-02T10:04:06;3.30;;;1.70;;
64669;SDS011;51080;51.690;5.174;2022-08-02T10:09:52;4.50;;;1.60;;
64669;SDS011;51080;51.690;5.174;2022-08-02T10:15:38;4.40;;;1.70;;
64669;SDS011;51080;51.690;5.174;2022-08-02T10:21:26;2.30;;;1.30;;
64669;SDS011;51080;51.690;5.174;2022-08-02T10:27:13;3.70;;;1.40;;
64669;SDS011;51080;51.690;5.174;2022-08-02T10:33:01;2.80;;;1.20;;
64669;SDS011;51080;51.690;5.174;2022-08-02T10:38:46;2.70;;;1.40;;
64669;SDS011;51080;51.690;5.174;2022-08-02T10:44:31;3.20;;;1.20;;
64669;SDS011;51080;51.690;5.174;2022-08-02T10:50:16;3.80;;;1.50;;
64669;SDS011;51080;51.690;5.174;2022-08-02T10:56:06;3.50;;;1.40;;
64669;SDS011;51080;51.690;5.174;2022-08-02T11:01:54;2.30;;;1.40;;
64669;SDS011;51080;51.690;5.174;2022-08-02T11:07:46;2.50;;;1.20;;
64669;SDS011;51080;51.690;5.174;2022-08-02T11:20:13;2.60;;;1.10;;
64669;SDS011;51080;51.690;5.174;2022-08-02T11:32:20;4.20;;;1.20;;
64669;SDS011;51080;51.690;5.174;2022-08-02T11:38:17;2.10;;;1.20;;
64669;SDS011;51080;51.690;5.174;2022-08-02T11:44:08;3.40;;;1.20;;
64669;SDS011;51080;51.690;5.174;2022-08-02T11:50:04;3.20;;;1.30;;
64669;SDS011;51080;51.690;5.174;2022-08-02T11:55:55;3.80;;;1.10;;
64669;SDS011;51080;51.690;5.174;2022-08-02T12:01:43;3.60;;;1.10;;
64669;SDS011;51080;51.690;5.174;2022-08-02T12:07:36;2.30;;;1.10;;
64669;SDS011;51080;51.690;5.174;2022-08-02T12:13:24;3.80;;;1.30;;
64669;SDS011;51080;51.690;5.174;2022-08-02T12:19:12;4.30;;;1.50;;
64669;SDS011;51080;51.690;5.174;2022-08-02T12:25:14;3.80;;;1.40;;
64669;SDS011;51080;51.690;5.174;2022-08-02T12:31:07;1.70;;;1.10;;
64669;SDS011;51080;51.690;5.174;2022-08-02T12:42:58;3.50;;;1.40;;
64669;SDS011;51080;51.690;5.174;2022-08-02T12:48:49;3.50;;;1.30;;
64669;SDS011;51080;51.690;5.174;2022-08-02T12:54:38;3.00;;;1.50;;
64669;SDS011;51080;51.690;5.174;2022-08-02T13:00:30;2.90;;;1.10;;
64669;SDS011;51080;51.690;5.174;2022-08-02T13:06:22;2.00;;;1.10;;
64669;SDS011;51080;51.690;5.174;2022-08-02T13:12:13;4.30;;;1.20;;
64669;SDS011;51080;51.690;5.174;2022-08-02T13:18:03;3.60;;;1.70;;
64669;SDS011;51080;51.690;5.174;2022-08-02T13:23:54;3.30;;;1.20;;
64669;SDS011;51080;51.690;5.174;2022-08-02T13:29:45;3.20;;;1.30;;
64669;SDS011;51080;51.690;5.174;2022-08-02T13:35:35;3.50;;;1.20;;
64669;SDS011;51080;51.690;5.174;2022-08-02T13:41:22;2.50;;;1.10;;
64669;SDS011;51080;51.690;5.174;2022-08-02T13:47:15;4.50;;;1.30;;
64669;SDS011;51080;51.690;5.174;2022-08-02T13:53:03;7.00;;;1.40;;
64669;SDS011;51080;51.690;5.174;2022-08-02T13:58:52;4.20;;;1.30;;
64669;SDS011;51080;51.690;5.174;2022-08-02T14:04:42;7.20;;;1.60;;
64669;SDS011;51080;51.690;5.174;2022-08-02T14:10:33;7.70;;;1.70;;
64669;SDS011;51080;51.690;5.174;2022-08-02T14:16:23;4.00;;;1.10;;
64669;SDS011;51080;51.690;5.174;2022-08-02T14:22:16;5.60;;;1.50;;
64669;SDS011;51080;51.690;5.174;2022-08-02T14:28:10;5.20;;;1.50;;
64669;SDS011;51080;51.690;5.174;2022-08-02T14:34:03;4.10;;;1.50;;
64669;SDS011;51080;51.690;5.174;2022-08-02T14:40:08;5.40;;;1.60;;
64669;SDS011;51080;51.690;5.174;2022-08-02T14:46:10;3.90;;;1.40;;
64669;SDS011;51080;51.690;5.174;2022-08-02T14:52:10;6.40;;;1.50;;
64669;SDS011;51080;51.690;5.174;2022-08-02T14:58:02;3.80;;;1.40;;
64669;SDS011;51080;51.690;5.174;2022-08-02T15:03:49;4.50;;;1.30;;
64669;SDS011;51080;51.690;5.174;2022-08-02T15:09:37;8.90;;;1.60;;
64669;SDS011;51080;51.690;5.174;2022-08-02T15:15:25;4.30;;;1.30;;
64669;SDS011;51080;51.690;5.174;2022-08-02T15:21:11;4.90;;;1.50;;
64669;SDS011;51080;51.690;5.174;2022-08-02T15:27:00;6.90;;;1.60;;
64669;SDS011;51080;51.690;5.174;2022-08-02T15:32:49;5.20;;;1.90;;
64669;SDS011;51080;51.690;5.174;2022-08-02T15:38:36;5.00;;;1.70;;
64669;SDS011;51080;51.690;5.174;2022-08-02T15:44:24;5.20;;;1.50;;
64669;SDS011;51080;51.690;5.174;2022-08-02T15:50:12;4.50;;;1.60;;
64669;SDS011;51080;51.690;5.174;2022-08-02T15:55:59;4.80;;;1.40;;
64669;SDS011;51080;51.690;5.174;2022-08-02T16:01:48;5.00;;;1.50;;
64669;SDS011;51080;51.690;5.174;2022-08-02T16:07:35;5.80;;;1.60;;
64669;SDS011;51080;51.690;5.174;2022-08-02T16:13:22;3.90;;;1.50;;
64669;SDS011;51080;51.690;5.174;2022-08-02T16:19:05;5.90;;;1.80;;
64669;SDS011;51080;51.690;5.174;2022-08-02T16:24:49;7.10;;;1.60;;
64669;SDS011;51080;51.690;5.174;2022-08-02T16:30:36;6.00;;;2.00;;
64669;SDS011;51080;51.690;5.174;2022-08-02T16:36:19;5.30;;;1.80;;
64669;SDS011;51080;51.690;5.174;2022-08-02T16:42:04;5.60;;;2.00;;
64669;SDS011;51080;51.690;5.174;2022-08-02T16:47:48;5.20;;;2.00;;
64669;SDS011;51080;51.690;5.174;2022-08-02T16:53:33;5.60;;;1.90;;
64669;SDS011;51080;51.690;5.174;2022-08-02T16:59:19;7.20;;;2.30;;
64669;SDS011;51080;51.690;5.174;2022-08-02T17:05:08;7.10;;;2.00;;
64669;SDS011;51080;51.690;5.174;2022-08-02T17:10:55;8.50;;;2.20;;
64669;SDS011;51080;51.690;5.174;2022-08-02T17:16:43;6.10;;;1.90;;
64669;SDS011;51080;51.690;5.174;2022-08-02T17:22:30;8.80;;;2.00;;
64669;SDS011;51080;51.690;5.174;2022-08-02T17:28:17;5.40;;;1.90;;
64669;SDS011;51080;51.690;5.174;2022-08-02T17:34:06;5.90;;;1.90;;
64669;SDS011;51080;51.690;5.174;2022-08-02T17:39:53;7.90;;;1.90;;
64669;SDS011;51080;51.690;5.174;2022-08-02T17:45:41;7.00;;;2.00;;
64669;SDS011;51080;51.690;5.174;2022-08-02T17:51:30;5.40;;;1.80;;
64669;SDS011;51080;51.690;5.174;2022-08-02T17:57:17;6.50;;;1.90;;
64669;SDS011;51080;51.690;5.174;2022-08-02T18:03:04;9.00;;;1.90;;
64669;SDS011;51080;51.690;5.174;2022-08-02T18:08:53;8.20;;;2.30;;
64669;SDS011;51080;51.690;5.174;2022-08-02T18:14:41;9.90;;;2.50;;
64669;SDS011;51080;51.690;5.174;2022-08-02T18:20:27;9.50;;;2.40;;
64669;SDS011;51080;51.690;5.174;2022-08-02T18:26:16;9.20;;;2.30;;
64669;SDS011;51080;51.690;5.174;2022-08-02T18:32:06;7.60;;;1.90;;
64669;SDS011;51080;51.690;5.174;2022-08-02T18:37:55;8.40;;;2.30;;
64669;SDS011;51080;51.690;5.174;2022-08-02T18:43:40;11.00;;;2.30;;
64669;SDS011;51080;51.690;5.174;2022-08-02T18:49:24;5.80;;;2.10;;
64669;SDS011;51080;51.690;5.174;2022-08-02T18:55:09;7.80;;;2.40;;
64669;SDS011;51080;51.690;5.174;2022-08-02T19:00:53;9.40;;;2.20;;
64669;SDS011;51080;51.690;5.174;2022-08-02T19:06:37;11.50;;;2.60;;
64669;SDS011;51080;51.690;5.174;2022-08-02T19:12:22;15.80;;;3.70;;
64669;SDS011;51080;51.690;5.174;2022-08-02T19:18:06;13.30;;;3.50;;
64669;SDS011;51080;51.690;5.174;2022-08-02T19:23:51;15.50;;;2.90;;
64669;SDS011;51080;51.690;5.174;2022-08-02T19:29:34;13.20;;;3.20;;
64669;SDS011;51080;51.690;5.174;2022-08-02T19:35:19;13.90;;;2.60;;
64669;SDS011;51080;51.690;5.174;2022-08-02T19:41:04;7.80;;;2.40;;
64669;SDS011;51080;51.690;5.174;2022-08-02T19:46:48;10.70;;;2.40;;
64669;SDS011;51080;51.690;5.174;2022-08-02T19:52:32;8.20;;;2.30;;
64669;SDS011;51080;51.690;5.174;2022-08-02T19:58:18;9.70;;;2.90;;
64669;SDS011;51080;51.690;5.174;2022-08-02T20:04:03;10.80;;;2.50;;
64669;SDS011;51080;51.690;5.174;2022-08-02T20:09:49;12.60;;;2.90;;
64669;SDS011;51080;51.690;5.174;2022-08-02T20:15:34;7.90;;;2.40;;
64669;SDS011;51080;51.690;5.174;2022-08-02T20:21:17;9.60;;;2.60;;
64669;SDS011;51080;51.690;5.174;2022-08-02T20:27:01;12.30;;;2.80;;
64669;SDS011;51080;51.690;5.174;2022-08-02T20:32:46;10.10;;;2.40;;
64669;SDS011;51080;51.690;5.174;2022-08-02T20:38:31;10.80;;;2.40;;
64669;SDS011;51080;51.690;5.174;2022-08-02T20:44:15;8.70;;;2.20;;
64669;SDS011;51080;51.690;5.174;2022-08-02T20:49:59;12.00;;;2.50;;
64669;SDS011;51080;51.690;5.174;2022-08-02T20:55:45;13.60;;;2.50;;
64669;SDS011;51080;51.690;5.174;2022-08-02T21:01:31;10.90;;;2.10;;
64669;SDS011;51080;51.690;5.174;2022-08-02T21:07:15;11.10;;;2.30;;
64669;SDS011;51080;51.690;5.174;2022-08-02T21:13:00;12.00;;;2.40;;
64669;SDS011;51080;51.690;5.174;2022-08-02T21:18:44;8.00;;;2.10;;
64669;SDS011;51080;51.690;5.174;2022-08-02T21:24:29;8.00;;;2.20;;
64669;SDS011;51080;51.690;5.174;2022-08-02T21:30:13;8.50;;;2.20;;
64669;SDS011;51080;51.690;5.174;2022-08-02T21:35:58;8.30;;;2.30;;
64669;SDS011;51080;51.690;5.174;2022-08-02T21:41:43;7.10;;;2.30;;
64669;SDS011;51080;51.690;5.174;2022-08-02T21:47:28;10.60;;;2.80;;
64669;SDS011;51080;51.690;5.174;2022-08-02T21:53:12;8.10;;;2.50;;
64669;SDS011;51080;51.690;5.174;2022-08-02T21:58:57;10.20;;;2.40;;
64669;SDS011;51080;51.690;5.174;2022-08-02T22:04:41;7.50;;;2.30;;
64669;SDS011;51080;51.690;5.174;2022-08-02T22:10:26;8.00;;;2.70;;
64669;SDS011;51080;51.690;5.174;2022-08-02T22:16:11;7.70;;;3.00;;
64669;SDS011;51080;51.690;5.174;2022-08-02T22:21:55;9.80;;;2.60;;
64669;SDS011;51080;51.690;5.174;2022-08-02T22:27:39;7.50;;;2.70;;
64669;SDS011;51080;51.690;5.174;2022-08-02T22:33:24;9.40;;;2.90;;
64669;SDS011;51080;51.690;5.174;2022-08-02T22:39:10;10.10;;;2.80;;
64669;SDS011;51080;51.690;5.174;2022-08-02T22:44:56;10.50;;;3.00;;
64669;SDS011;51080;51.690;5.174;2022-08-02T22:50:40;8.20;;;2.50;;
64669;SDS011;51080;51.690;5.174;2022-08-02T22:56:24;11.20;;;2.90;;
64669;SDS011;51080;51.690;5.174;2022-08-02T23:02:09;7.00;;;2.70;;
64669;SDS011;51080;51.690;5.174;2022-08-02T23:07:53;7.40;;;2.80;;
64669;SDS011;51080;51.690;5.174;2022-08-02T23:13:39;9.50;;;3.60;;
64669;SDS011;51080;51.690;5.174;2022-08-02T23:19:22;10.20;;;3.20;;
64669;SDS011;51080;51.690;5.174;2022-08-02T23:25:07;7.90;;;2.90;;
64669;SDS011;51080;51.690;5.174;2022-08-02T23:30:52;7.90;;;3.20;;
64669;SDS011;51080;51.690;5.174;2022-08-02T23:36:37;9.30;;;3.20;;
64669;SDS011;51080;51.690;5.174;2022-08-02T23:42:20;9.20;;;3.20;;
64669;SDS011;51080;51.690;5.174;2022-08-02T23:48:05;9.80;;;3.20;;
64669;SDS011;51080;51.690;5.174;2022-08-02T23:53:49;8.20;;;2.70;;
